Time;durP1;ratioP1;P1;durP2;ratioP2;P2;SDS_P1;SDS_P2;PMS_P1;PMS_P2;Temp;Humidity;BMP_temperature;BMP_pressure;BME280_temperature;BME280_humidity;BME280_pressure;Samples;Min_cycle;Max_cycle;Signal;HPM_P1;HPM_P2
2023/03/01 00:01:04;;;;;;;25.15;14.13;;;-0.60;99.90;;;;;;4915571;29;20099;-74
2023/03/01 00:03:31;;;;;;;24.55;14.32;;;-0.60;99.90;;;;;;4920907;29;20045;-73
2023/03/01 00:05:57;;;;;;;25.88;14.57;;;-0.60;99.90;;;;;;4906228;29;20106;-75
2023/03/01 00:08:27;;;;;;;23.08;14.20;;;-0.60;99.90;;;;;;4906571;29;20045;-75
2023/03/01 00:11:07;;;;;;;24.27;14.07;;;-0.60;99.90;;;;;;4906137;29;20248;-73
2023/03/01 00:13:34;;;;;;;24.15;13.80;;;-0.60;99.90;;;;;;4906580;29;20234;-76
2023/03/01 00:16:06;;;;;;;25.08;14.27;;;-0.60;99.90;;;;;;4913488;29;20063;-73
2023/03/01 00:18:39;;;;;;;23.08;13.77;;;-0.50;99.90;;;;;;4906593;29;20263;-76
2023/03/01 00:21:05;;;;;;;21.77;13.07;;;-0.50;99.90;;;;;;4906313;29;20330;-74
2023/03/01 00:23:31;;;;;;;23.10;14.13;;;-0.40;99.90;;;;;;4924177;29;20332;-74
2023/03/01 00:25:57;;;;;;;24.63;13.68;;;-0.50;99.90;;;;;;4925179;29;20032;-75
2023/03/01 00:28:23;;;;;;;24.50;14.15;;;-0.50;99.90;;;;;;4925391;29;20028;-74
2023/03/01 06:01:46;;;;;;;25.13;14.13;;;1.30;98.40;;;;;;5697981;23;20056;-75
2023/03/01 06:04:12;;;;;;;24.15;15.25;;;1.30;98.30;;;;;;4910702;29;20060;-76
2023/03/01 06:06:38;;;;;;;24.30;14.18;;;1.30;98.50;;;;;;4901294;29;20039;-76
2023/03/01 06:09:07;;;;;;;25.60;14.85;;;1.30;98.40;;;;;;4896320;29;20056;-74
2023/03/01 06:11:34;;;;;;;26.88;15.40;;;1.30;98.40;;;;;;4907082;29;20265;-75
2023/03/01 06:14:00;;;;;;;25.63;14.23;;;1.30;98.70;;;;;;4889282;29;20049;-75
2023/03/01 06:16:27;;;;;;;25.38;14.40;;;1.40;98.10;;;;;;4888871;29;20056;-75
2023/03/01 06:18:53;;;;;;;26.02;14.48;;;1.40;98.20;;;;;;4915150;29;20036;-74
2023/03/01 06:21:18;;;;;;;24.92;14.75;;;1.40;98.30;;;;;;4917122;29;20091;-74
2023/03/01 06:23:44;;;;;;;26.10;14.65;;;1.40;98.50;;;;;;4913122;29;20039;-75
2023/03/01 06:26:10;;;;;;;27.13;15.18;;;1.40;98.40;;;;;;4912956;29;20028;-75
2023/03/01 06:28:36;;;;;;;27.52;14.77;;;1.40;98.30;;;;;;4902263;29;20057;-74
2023/03/01 06:31:02;;;;;;;24.67;14.27;;;1.40;98.20;;;;;;4889540;29;20354;-75
2023/03/01 06:33:27;;;;;;;24.00;15.05;;;1.30;98.20;;;;;;4888532;29;20036;-75
2023/03/01 06:35:56;;;;;;;29.55;15.27;;;1.30;98.30;;;;;;4909921;29;20083;-75
2023/03/01 06:38:24;;;;;;;27.80;14.93;;;1.40;98.40;;;;;;4911815;29;20071;-76
2023/03/01 06:40:54;;;;;;;29.33;15.23;;;1.40;98.60;;;;;;4911807;29;20030;-75
2023/03/01 06:43:21;;;;;;;21.80;13.98;;;1.50;98.40;;;;;;4901248;29;20041;-76
2023/03/01 06:45:46;;;;;;;24.65;14.48;;;1.60;98.30;;;;;;4889307;29;20206;-76
2023/03/01 06:48:12;;;;;;;27.63;14.82;;;1.60;97.50;;;;;;4913672;29;20025;-75
2023/03/01 06:50:41;;;;;;;26.23;14.90;;;1.50;97.50;;;;;;4888682;29;20175;-75
2023/03/01 06:53:06;;;;;;;24.38;14.65;;;1.60;97.60;;;;;;4888669;29;20032;-76
2023/03/01 06:55:32;;;;;;;28.30;15.43;;;1.60;97.70;;;;;;4905785;29;20039;-76
2023/03/01 06:57:59;;;;;;;26.30;14.65;;;1.70;97.30;;;;;;4913342;29;20040;-76
2023/03/01 07:00:26;;;;;;;24.92;14.50;;;1.70;97.20;;;;;;4906782;29;20032;-75
2023/03/01 07:02:52;;;;;;;26.98;14.43;;;1.70;97.40;;;;;;4906676;29;20112;-76
2023/03/01 07:05:19;;;;;;;25.13;14.90;;;1.70;97.30;;;;;;4906603;29;20037;-74
2023/03/01 07:07:44;;;;;;;26.52;14.93;;;1.60;97.60;;;;;;4891171;29;20142;-75
2023/03/01 07:10:11;;;;;;;25.45;14.65;;;1.60;97.50;;;;;;4890260;29;20099;-75
2023/03/01 07:12:37;;;;;;;28.15;16.73;;;1.50;97.40;;;;;;4894772;29;20044;-77
2023/03/01 07:15:03;;;;;;;24.20;14.77;;;1.40;97.80;;;;;;4895084;29;20060;-76
2023/03/01 07:17:29;;;;;;;31.00;16.50;;;1.30;97.90;;;;;;4894465;29;20043;-76
2023/03/01 07:19:56;;;;;;;27.35;15.13;;;1.30;97.90;;;;;;4895772;29;20083;-76
2023/03/01 07:22:22;;;;;;;27.58;15.73;;;1.30;98.00;;;;;;4894425;29;20302;-75
2023/03/01 07:24:47;;;;;;;28.10;15.13;;;1.30;98.20;;;;;;4894340;29;20037;-75
2023/03/01 07:27:13;;;;;;;26.50;15.43;;;1.30;97.90;;;;;;4890655;29;20070;-76
2023/03/01 07:29:39;;;;;;;27.90;15.65;;;1.20;98.00;;;;;;4871016;29;20025;-75
2023/03/01 07:32:06;;;;;;;27.35;15.73;;;1.20;98.10;;;;;;4887903;29;20350;-75
2023/03/01 07:34:32;;;;;;;28.33;15.45;;;1.30;97.90;;;;;;4890076;29;20025;-75
2023/03/01 07:36:58;;;;;;;27.42;15.38;;;1.40;97.70;;;;;;4893356;29;20055;-75
2023/03/01 07:39:24;;;;;;;32.05;16.15;;;1.40;97.90;;;;;;4887149;29;20129;-77
2023/03/01 07:41:50;;;;;;;25.90;14.55;;;1.40;97.80;;;;;;4897850;29;20116;-75
2023/03/01 07:44:20;;;;;;;27.13;15.70;;;1.50;97.60;;;;;;4879721;29;20262;-76
2023/03/01 07:46:46;;;;;;;29.15;15.73;;;1.50;97.50;;;;;;4888011;29;20040;-75
2023/03/01 07:49:11;;;;;;;30.23;16.00;;;1.50;97.30;;;;;;4887785;29;20064;-74
2023/03/01 07:51:38;;;;;;;27.17;15.60;;;1.60;97.60;;;;;;4887370;29;20100;-75
2023/03/01 07:54:03;;;;;;;29.33;15.43;;;1.70;97.30;;;;;;4887723;29;20132;-74
2023/03/01 07:56:29;;;;;;;32.15;16.35;;;1.70;97.30;;;;;;4887515;29;20044;-75
2023/03/01 07:58:55;;;;;;;30.27;15.82;;;1.80;97.00;;;;;;4890728;29;20382;-76
2023/03/01 08:01:21;;;;;;;27.10;15.32;;;1.90;96.90;;;;;;4887263;29;20033;-75
2023/03/01 08:03:48;;;;;;;30.20;16.58;;;1.90;96.80;;;;;;4887866;29;20029;-75
2023/03/01 08:06:17;;;;;;;31.55;16.63;;;2.00;96.60;;;;;;4898841;29;20052;-77
2023/03/01 08:08:44;;;;;;;29.02;15.80;;;2.20;96.40;;;;;;4902605;29;20032;-78
2023/03/01 08:11:14;;;;;;;29.17;16.23;;;2.20;96.30;;;;;;4895530;29;20029;-77
2023/03/01 08:13:40;;;;;;;28.85;15.30;;;2.20;96.00;;;;;;4893452;29;20142;-78
2023/03/01 08:16:09;;;;;;;28.23;16.15;;;2.20;96.10;;;;;;4907355;29;20319;-78
2023/03/01 08:18:35;;;;;;;27.67;16.40;;;2.20;96.10;;;;;;4893317;29;20048;-77
2023/03/01 08:21:07;;;;;;;26.58;15.45;;;2.30;96.10;;;;;;4898525;29;20044;-76
2023/03/01 08:23:33;;;;;;;27.08;15.48;;;2.40;95.90;;;;;;4887560;29;20092;-77
2023/03/01 08:26:06;;;;;;;26.05;15.48;;;2.40;95.80;;;;;;4899466;29;20112;-76
2023/03/01 08:28:32;;;;;;;28.70;16.42;;;2.50;95.70;;;;;;4902257;29;20040;-76
2023/03/01 08:30:57;;;;;;;31.42;16.33;;;2.50;95.30;;;;;;4893735;29;20037;-77
2023/03/01 08:33:23;;;;;;;28.08;15.90;;;2.60;95.40;;;;;;4892846;29;20071;-77
2023/03/01 08:35:49;;;;;;;26.65;15.32;;;2.50;95.30;;;;;;4893606;29;20025;-77
2023/03/01 08:38:14;;;;;;;26.17;15.48;;;2.60;95.20;;;;;;4894004;29;20040;-76
2023/03/01 08:40:40;;;;;;;31.02;18.20;;;2.70;95.20;;;;;;4906494;29;20065;-76
2023/03/01 08:43:06;;;;;;;28.50;15.95;;;2.70;94.90;;;;;;4912586;29;20084;-77
2023/03/01 08:45:31;;;;;;;25.73;16.10;;;2.70;94.80;;;;;;4909644;29;20063;-77
2023/03/01 08:47:57;;;;;;;27.10;15.95;;;2.70;95.00;;;;;;4883187;29;20067;-77
2023/03/01 08:50:24;;;;;;;27.00;15.90;;;2.80;95.00;;;;;;4912057;29;20076;-77
2023/03/01 08:52:50;;;;;;;29.02;16.05;;;2.80;94.70;;;;;;4880030;29;20044;-76
2023/03/01 08:55:17;;;;;;;29.58;15.93;;;2.80;94.80;;;;;;4903787;29;20322;-77
2023/03/01 08:57:43;;;;;;;27.67;16.63;;;2.90;94.50;;;;;;4892811;29;20077;-77
2023/03/01 09:00:11;;;;;;;25.85;15.23;;;2.80;94.40;;;;;;4893745;29;20067;-76
2023/03/01 09:02:37;;;;;;;27.60;15.67;;;2.90;94.40;;;;;;4892953;29;20112;-76
2023/03/01 09:05:03;;;;;;;28.40;14.90;;;2.90;94.50;;;;;;4893669;29;20048;-77
2023/03/01 09:07:29;;;;;;;28.90;16.15;;;3.00;94.30;;;;;;4893019;29;20033;-77
2023/03/01 09:09:55;;;;;;;27.92;15.85;;;3.20;94.30;;;;;;4911124;29;20065;-77
2023/03/01 09:12:21;;;;;;;29.92;16.45;;;3.40;93.80;;;;;;4898889;29;20333;-77
2023/03/01 09:14:46;;;;;;;25.38;15.05;;;3.50;93.60;;;;;;4904117;29;20039;-77
2023/03/01 09:17:12;;;;;;;27.10;16.20;;;3.40;93.30;;;;;;4891363;29;20051;-77
2023/03/01 09:19:38;;;;;;;28.65;16.20;;;3.40;93.40;;;;;;4890607;29;20023;-78
2023/03/01 09:22:06;;;;;;;27.33;15.85;;;3.50;93.40;;;;;;4891121;29;20334;-77
2023/03/01 09:24:32;;;;;;;24.90;15.32;;;3.50;93.20;;;;;;4873326;29;20029;-76
2023/03/01 09:26:58;;;;;;;28.52;16.05;;;3.50;93.10;;;;;;4890127;29;20029;-76
2023/03/01 09:29:24;;;;;;;28.00;15.25;;;3.60;93.30;;;;;;4898364;29;20235;-77
2023/03/01 09:31:49;;;;;;;27.00;15.60;;;3.70;93.00;;;;;;4897094;29;20093;-75
2023/03/01 09:34:19;;;;;;;28.77;16.15;;;3.80;92.70;;;;;;4894846;29;20041;-76
2023/03/01 09:36:45;;;;;;;25.70;15.63;;;3.90;92.60;;;;;;4891438;29;20093;-76
2023/03/01 09:39:10;;;;;;;28.15;16.23;;;4.00;92.60;;;;;;4891949;29;20092;-75
2023/03/01 09:42:04;;;;;;;26.98;16.88;;;4.00;92.40;;;;;;4891741;29;20037;-76
2023/03/01 09:44:51;;;;;;;26.83;15.80;;;4.20;92.20;;;;;;4896185;29;20045;-75
2023/03/01 09:47:30;;;;;;;29.00;16.20;;;4.30;92.10;;;;;;4889837;29;20067;-75
2023/03/01 09:50:11;;;;;;;27.13;15.23;;;4.30;91.70;;;;;;4889885;29;20056;-76
2023/03/01 09:53:00;;;;;;;27.92;15.38;;;4.50;91.90;;;;;;4891665;29;20043;-75
2023/03/01 09:55:36;;;;;;;23.42;13.55;;;4.60;91.40;;;;;;4908659;29;20076;-73
2023/03/01 09:58:30;;;;;;;24.58;14.25;;;4.80;90.90;;;;;;4908267;29;20294;-73
2023/03/01 10:01:02;;;;;;;22.33;13.95;;;5.00;90.10;;;;;;4908278;29;20028;-74
2023/03/01 10:03:45;;;;;;;26.40;15.05;;;5.10;90.30;;;;;;4907171;29;20063;-72
2023/03/01 10:06:20;;;;;;;22.13;14.32;;;5.20;89.00;;;;;;4898639;29;20040;-73
2023/03/01 10:09:00;;;;;;;26.90;14.18;;;5.30;89.10;;;;;;4904559;29;20043;-73
2023/03/01 10:11:37;;;;;;;25.00;13.98;;;5.40;88.90;;;;;;4889006;29;20096;-73
2023/03/01 10:14:43;;;;;;;27.33;14.60;;;5.50;87.90;;;;;;4895636;29;20210;-74
2023/03/01 10:17:20;;;;;;;24.65;13.50;;;5.50;88.20;;;;;;4891468;29;20076;-73
2023/03/01 10:19:46;;;;;;;25.00;14.85;;;5.60;88.10;;;;;;4891071;29;20251;-74
2023/03/01 10:22:21;;;;;;;24.77;14.65;;;5.80;86.70;;;;;;4907815;29;20110;-73
2023/03/01 10:24:48;;;;;;;22.02;14.20;;;5.80;86.70;;;;;;4907380;29;20040;-73
2023/03/01 10:27:33;;;;;;;25.08;14.63;;;5.80;87.20;;;;;;4907716;29;20377;-73
2023/03/01 10:30:06;;;;;;;26.92;15.20;;;5.80;86.80;;;;;;4894856;29;20096;-73
2023/03/01 10:32:32;;;;;;;23.90;14.30;;;6.00;86.50;;;;;;4898191;29;20108;-73
2023/03/01 10:34:58;;;;;;;22.45;13.65;;;6.10;85.60;;;;;;4892772;29;20029;-73
2023/03/01 10:37:26;;;;;;;22.50;12.75;;;6.10;86.40;;;;;;4889233;29;20025;-72
2023/03/01 10:39:58;;;;;;;22.83;13.30;;;6.20;86.90;;;;;;4889024;29;20047;-74
2023/03/01 10:42:30;;;;;;;21.95;13.77;;;6.40;85.30;;;;;;4888879;29;20366;-70
2023/03/01 10:44:56;;;;;;;22.60;13.55;;;6.50;84.50;;;;;;4888846;29;20103;-74
2023/03/01 10:47:25;;;;;;;24.05;13.38;;;6.70;84.50;;;;;;4888758;29;20104;-72
2023/03/01 10:49:51;;;;;;;;;;;6.70;83.50;;;;;;4901845;29;20039;-74
2023/03/01 10:52:23;;;;;;;23.38;13.35;;;6.90;83.60;;;;;;4872381;29;19915;-72
2023/03/01 10:54:59;;;;;;;29.23;13.55;;;6.90;82.70;;;;;;4892441;29;20285;-73
2023/03/01 10:57:36;;;;;;;24.23;13.70;;;7.00;82.30;;;;;;4918486;29;20031;-72
2023/03/01 11:00:16;;;;;;;22.58;13.38;;;7.20;81.60;;;;;;4916581;29;20029;-71
2023/03/01 11:02:42;;;;;;;22.77;13.85;;;7.30;82.00;;;;;;4906813;29;20249;-73
2023/03/01 11:05:17;;;;;;;21.88;13.00;;;7.60;81.60;;;;;;4890329;29;20048;-74
2023/03/01 11:07:52;;;;;;;19.92;13.15;;;7.90;80.10;;;;;;4907156;29;20044;-73
2023/03/01 11:10:21;;;;;;;21.35;13.70;;;8.20;79.30;;;;;;4890250;29;20032;-74
2023/03/01 11:12:47;;;;;;;21.33;14.63;;;8.30;78.60;;;;;;4890567;29;20053;-76
2023/03/01 11:15:27;;;;;;;22.27;13.98;;;8.50;79.20;;;;;;4888567;29;20187;-74
2023/03/01 11:17:55;;;;;;;20.58;13.10;;;9.00;79.20;;;;;;4888279;29;20044;-73
2023/03/01 11:20:34;;;;;;;19.35;12.93;;;9.60;76.20;;;;;;4888109;29;20282;-74
2023/03/01 11:23:06;;;;;;;20.73;13.45;;;10.00;75.50;;;;;;4888410;29;20081;-73
2023/03/01 11:25:40;;;;;;;21.33;13.55;;;10.70;73.30;;;;;;4887928;29;20037;-71
2023/03/01 11:28:15;;;;;;;17.73;12.65;;;11.40;71.00;;;;;;4894646;29;20048;-74
2023/03/01 11:30:46;;;;;;;18.30;12.90;;;11.60;71.20;;;;;;4870996;29;20268;-71
2023/03/01 11:33:18;;;;;;;18.13;13.07;;;12.30;69.20;;;;;;4895528;29;20039;-74
2023/03/01 11:36:06;;;;;;;17.50;12.57;;;12.80;68.00;;;;;;4906399;29;20040;-71
2023/03/01 11:38:35;;;;;;;16.40;13.07;;;13.20;66.10;;;;;;4896236;29;20059;-70
2023/03/01 11:41:23;;;;;;;16.95;12.15;;;13.00;65.70;;;;;;4904098;29;20091;-72
2023/03/01 11:43:52;;;;;;;;;;;13.10;65.80;;;;;;4906792;29;20381;-72
2023/03/01 11:46:32;;;;;;;18.52;12.57;;;13.60;65.70;;;;;;4901382;29;19908;-73
2023/03/01 11:49:16;;;;;;;16.50;13.05;;;14.10;64.00;;;;;;4901194;29;20052;-72
2023/03/01 11:51:56;;;;;;;16.30;12.93;;;14.70;62.20;;;;;;4905985;29;20032;-72
2023/03/01 11:54:42;;;;;;;17.63;12.60;;;14.90;62.30;;;;;;4906834;29;20041;-71
2023/03/01 11:57:36;;;;;;;15.57;12.48;;;14.90;60.70;;;;;;4906677;29;20036;-72
2023/03/01 12:00:30;;;;;;;15.10;11.80;;;15.70;59.70;;;;;;4864029;29;20431;-74
2023/03/01 12:03:14;;;;;;;17.52;12.57;;;15.90;59.00;;;;;;4906162;29;20223;-74
2023/03/01 12:06:17;;;;;;;14.70;12.35;;;16.40;58.20;;;;;;4905871;29;20111;-74
2023/03/01 12:08:54;;;;;;;16.63;11.75;;;16.20;57.70;;;;;;4905822;29;20039;-75
2023/03/01 12:11:52;;;;;;;16.70;12.15;;;16.70;59.70;;;;;;4882669;29;20048;-74
2023/03/01 12:14:51;;;;;;;18.63;12.10;;;17.50;56.60;;;;;;4886951;29;20041;-74
2023/03/01 12:17:35;;;;;;;25.83;12.10;;;17.30;55.80;;;;;;4899629;29;20056;-73
2023/03/01 12:20:36;;;;;;;14.52;11.50;;;17.00;56.30;;;;;;4893500;29;20048;-75
2023/03/01 12:23:07;;;;;;;13.30;10.98;;;17.50;56.00;;;;;;4887364;29;20065;-73
2023/03/01 12:25:59;;;;;;;13.20;10.50;;;18.20;54.90;;;;;;4887202;29;20037;-73
2023/03/01 12:28:51;;;;;;;14.77;10.77;;;18.80;54.30;;;;;;4893169;29;20343;-72
2023/03/01 12:31:29;;;;;;;16.73;12.25;;;18.30;53.70;;;;;;4890580;29;20374;-73
2023/03/01 12:34:18;;;;;;;17.42;11.45;;;17.80;54.20;;;;;;4886969;29;20068;-73
2023/03/01 12:36:56;;;;;;;23.98;11.45;;;17.50;55.50;;;;;;4894039;29;20037;-73
2023/03/01 12:39:49;;;;;;;18.40;11.10;;;17.80;56.20;;;;;;4906119;29;20032;-72
2023/03/01 12:42:26;;;;;;;12.38;10.60;;;18.80;54.40;;;;;;4906187;29;20214;-73
2023/03/01 12:44:58;;;;;;;15.68;11.32;;;18.60;52.90;;;;;;4903998;29;20063;-75
2023/03/01 12:47:50;;;;;;;23.88;11.82;;;17.90;53.70;;;;;;4875319;29;20029;-75
2023/03/01 12:50:40;;;;;;;19.23;10.93;;;18.00;54.20;;;;;;4892565;29;20041;-75
2023/03/01 12:53:15;;;;;;;18.80;11.02;;;19.00;53.50;;;;;;4890370;29;20037;-73
2023/03/01 12:55:43;;;;;;;14.38;10.98;;;19.90;52.10;;;;;;4890359;29;20081;-71
2023/03/01 12:58:43;;;;;;;12.10;10.20;;;19.80;51.40;;;;;;4897259;29;20056;-73
2023/03/01 13:01:24;;;;;;;12.63;10.27;;;20.30;51.80;;;;;;4894689;29;20492;-72
2023/03/01 13:04:06;;;;;;;13.25;10.60;;;20.40;50.60;;;;;;4897188;29;20045;-74
2023/03/01 13:07:09;;;;;;;13.15;9.57;;;20.60;50.10;;;;;;4897868;29;20041;-72
2023/03/01 13:10:06;;;;;;;16.35;11.63;;;21.20;50.30;;;;;;4908619;29;20328;-73
2023/03/01 13:12:46;;;;;;;12.90;9.93;;;21.50;49.30;;;;;;4894953;29;20120;-72
2023/03/01 13:15:23;;;;;;;12.07;10.13;;;21.10;49.60;;;;;;4890493;29;20037;-71
2023/03/01 13:17:52;;;;;;;12.13;9.85;;;21.00;50.20;;;;;;4889761;29;20036;-73
2023/03/01 13:20:29;;;;;;;12.73;10.45;;;22.10;49.40;;;;;;4890652;29;20049;-72
2023/03/01 13:23:19;;;;;;;12.82;9.43;;;22.90;47.80;;;;;;4890169;29;20029;-75
2023/03/01 13:25:59;;;;;;;10.27;8.95;;;22.40;47.60;;;;;;4890106;29;20080;-74
2023/03/01 13:28:37;;;;;;;10.93;9.05;;;22.10;49.50;;;;;;4874682;29;20283;-74
2023/03/01 13:31:08;;;;;;;13.45;10.88;;;22.40;47.80;;;;;;4875654;29;20166;-75
2023/03/01 13:33:47;;;;;;;12.18;10.45;;;22.20;47.00;;;;;;4890148;29;20048;-73
2023/03/01 13:36:28;;;;;;;13.50;11.13;;;21.90;47.50;;;;;;4890446;29;20132;-73
2023/03/01 13:38:54;;;;;;;13.05;11.20;;;21.70;47.70;;;;;;4889699;29;20037;-72
2023/03/01 13:41:38;;;;;;;13.68;11.40;;;21.20;47.70;;;;;;4889958;29;20041;-72
2023/03/01 13:44:23;;;;;;;17.35;11.65;;;21.30;47.60;;;;;;4891816;29;20077;-74
2023/03/01 13:46:54;;;;;;;15.95;12.20;;;20.80;48.60;;;;;;4907634;29;20304;-75
2023/03/01 13:49:23;;;;;;;15.77;12.23;;;20.70;48.60;;;;;;4895242;29;20204;-72
2023/03/01 13:51:50;;;;;;;14.73;11.93;;;20.30;49.20;;;;;;4889401;29;20100;-76
2023/03/01 13:54:39;;;;;;;16.88;12.57;;;19.80;49.80;;;;;;4889719;29;20268;-76
2023/03/01 13:57:04;;;;;;;14.98;12.40;;;19.90;49.60;;;;;;4889083;29;20136;-74
2023/03/01 13:59:30;;;;;;;14.48;12.32;;;19.40;50.30;;;;;;4888389;29;20049;-76
2023/03/01 14:01:59;;;;;;;17.40;13.15;;;19.40;50.40;;;;;;4888889;29;20061;-74
2023/03/01 14:04:28;;;;;;;15.80;13.05;;;19.80;50.00;;;;;;4889079;29;20122;-73
2023/03/01 14:07:29;;;;;;;15.93;12.75;;;20.30;49.60;;;;;;4888817;29;20330;-74
2023/03/01 14:10:06;;;;;;;17.55;13.20;;;20.60;49.30;;;;;;4828107;29;20067;-74
2023/03/01 14:12:49;;;;;;;16.30;12.85;;;20.80;49.00;;;;;;4882070;29;20057;-73
2023/03/01 14:15:37;;;;;;;16.27;12.95;;;20.30;49.40;;;;;;4872772;29;20041;-73
2023/03/01 14:18:24;;;;;;;18.40;13.15;;;19.60;49.80;;;;;;4889586;29;20037;-73
2023/03/01 14:20:51;;;;;;;15.77;13.50;;;20.10;49.60;;;;;;4890694;29;20226;-73
2023/03/01 14:23:24;;;;;;;16.92;13.48;;;19.90;49.80;;;;;;4908110;29;20047;-73
2023/03/01 14:25:53;;;;;;;18.08;13.93;;;19.90;49.80;;;;;;4907768;29;20039;-75
2023/03/01 14:28:30;;;;;;;17.85;13.18;;;19.80;50.00;;;;;;4908092;29;20107;-75
2023/03/01 14:31:00;;;;;;;18.02;13.45;;;19.90;49.90;;;;;;4888858;29;20037;-75
2023/03/01 14:33:33;;;;;;;18.75;13.25;;;20.20;49.20;;;;;;4889106;29;20037;-73
2023/03/01 14:36:09;;;;;;;17.55;14.20;;;20.50;49.40;;;;;;4888531;29;20045;-75
2023/03/01 14:38:41;;;;;;;17.25;13.70;;;20.50;49.50;;;;;;4889274;29;20053;-75
2023/03/01 14:41:18;;;;;;;18.00;13.45;;;20.20;49.30;;;;;;4888865;29;20044;-72
2023/03/01 14:44:06;;;;;;;18.60;13.00;;;19.80;50.20;;;;;;4893555;29;20289;-73
2023/03/01 14:46:36;;;;;;;17.17;13.43;;;20.30;49.40;;;;;;4906779;29;20056;-73
2023/03/01 14:49:26;;;;;;;16.48;12.98;;;19.70;50.10;;;;;;4893240;29;21077;-75
2023/03/01 14:52:03;;;;;;;17.77;12.95;;;19.90;49.70;;;;;;4888046;29;20025;-73
2023/03/01 14:54:51;;;;;;;16.08;12.55;;;19.30;50.20;;;;;;4872319;29;20387;-75
2023/03/01 14:57:25;;;;;;;16.40;12.93;;;19.40;50.40;;;;;;4889118;29;20413;-75
2023/03/01 14:59:54;;;;;;;18.58;12.95;;;19.40;50.30;;;;;;4888353;29;20032;-74
2023/03/01 15:02:23;;;;;;;19.40;13.70;;;19.40;50.50;;;;;;4871856;29;20238;-72
2023/03/01 15:04:52;;;;;;;16.42;13.65;;;19.40;50.40;;;;;;4887998;29;20223;-73
2023/03/01 15:07:19;;;;;;;16.55;13.50;;;19.10;50.70;;;;;;4888311;29;20331;-75
2023/03/01 15:09:45;;;;;;;17.42;13.38;;;18.60;51.20;;;;;;4895731;29;20033;-74
2023/03/01 15:12:37;;;;;;;18.40;13.63;;;18.40;51.60;;;;;;4872146;29;20056;-75
2023/03/01 15:15:21;;;;;;;15.75;13.00;;;18.80;51.40;;;;;;4887785;29;20100;-73
2023/03/01 15:17:55;;;;;;;17.30;13.70;;;18.80;51.00;;;;;;4888133;29;20040;-74
2023/03/01 15:20:25;;;;;;;18.58;14.07;;;18.20;51.60;;;;;;4888835;29;20045;-74
2023/03/01 15:22:52;;;;;;;17.17;13.43;;;18.10;52.10;;;;;;4887663;29;20037;-73
2023/03/01 15:25:27;;;;;;;19.15;13.63;;;18.20;51.90;;;;;;4888726;29;20033;-74
2023/03/01 15:27:54;;;;;;;18.73;13.43;;;17.90;52.30;;;;;;4888205;29;20100;-74
2023/03/01 15:30:24;;;;;;;18.48;13.80;;;17.40;52.80;;;;;;4892891;29;20041;-73
2023/03/01 15:33:22;;;;;;;18.70;12.98;;;17.10;53.30;;;;;;4887636;29;20045;-75
2023/03/01 15:35:50;;;;;;;17.48;13.07;;;17.40;53.20;;;;;;4887946;29;20056;-74
2023/03/01 15:38:29;;;;;;;20.50;13.90;;;17.80;52.70;;;;;;4888056;29;20052;-74
2023/03/01 15:40:57;;;;;;;20.15;13.48;;;17.20;52.70;;;;;;4887444;29;20104;-73
2023/03/01 15:43:43;;;;;;;19.08;14.13;;;16.80;53.40;;;;;;4888026;29;20041;-75
2023/03/01 15:46:23;;;;;;;18.95;13.68;;;16.20;53.90;;;;;;4906884;29;20047;-72
2023/03/01 15:48:52;;;;;;;18.55;13.13;;;15.70;54.60;;;;;;4887525;29;20080;-72
2023/03/01 15:51:21;;;;;;;18.42;13.63;;;15.40;55.10;;;;;;4888217;29;20101;-73
2023/03/01 15:53:52;;;;;;;17.88;13.05;;;15.60;55.10;;;;;;4887206;29;20036;-74
2023/03/01 15:56:18;;;;;;;20.38;13.45;;;15.50;55.10;;;;;;4888020;29;20036;-73
2023/03/01 15:58:44;;;;;;;18.95;13.23;;;15.30;55.20;;;;;;4887487;29;20307;-71
2023/03/01 16:01:17;;;;;;;19.95;13.65;;;14.70;56.10;;;;;;4888154;29;20041;-73
2023/03/01 16:03:43;;;;;;;20.15;13.43;;;14.50;56.40;;;;;;4887304;29;20120;-74
2023/03/01 16:06:10;;;;;;;21.13;14.07;;;14.30;56.50;;;;;;4888261;29;20021;-72
2023/03/01 16:08:37;;;;;;;21.70;13.82;;;13.90;57.00;;;;;;4903486;29;20043;-76
2023/03/01 16:11:12;;;;;;;21.42;13.18;;;13.80;57.40;;;;;;4897164;29;20112;-74
2023/03/01 16:13:39;;;;;;;22.30;13.45;;;13.40;58.30;;;;;;4888055;29;20237;-73
2023/03/01 16:16:05;;;;;;;21.63;13.68;;;13.40;58.50;;;;;;4887224;29;20037;-74
2023/03/01 16:18:30;;;;;;;19.33;13.68;;;13.30;58.30;;;;;;4888047;29;20165;-72
2023/03/01 16:20:56;;;;;;;19.10;12.93;;;13.40;58.40;;;;;;4887323;29;20025;-74
2023/03/01 16:23:24;;;;;;;18.15;12.40;;;13.20;58.80;;;;;;4871395;29;20061;-73
2023/03/01 16:25:50;;;;;;;19.67;13.02;;;12.90;59.10;;;;;;4887792;29;20248;-72
2023/03/01 16:28:16;;;;;;;19.85;13.52;;;12.70;59.50;;;;;;4891325;29;20044;-73
2023/03/01 16:30:47;;;;;;;20.85;13.55;;;12.20;60.00;;;;;;4904141;29;20029;-73
2023/03/01 16:33:13;;;;;;;19.50;12.57;;;12.00;60.60;;;;;;4891449;29;20048;-74
2023/03/01 16:35:40;;;;;;;20.27;12.90;;;11.70;61.40;;;;;;4891500;29;20037;-74
2023/03/01 16:38:06;;;;;;;19.70;12.30;;;10.90;62.90;;;;;;4891054;29;20045;-77
2023/03/01 16:40:31;;;;;;;21.73;12.77;;;10.30;64.50;;;;;;4874617;29;20204;-72
2023/03/01 16:43:01;;;;;;;20.00;12.75;;;9.80;66.20;;;;;;4890893;29;20037;-76
2023/03/01 16:45:32;;;;;;;21.58;12.88;;;9.40;67.10;;;;;;4891023;29;20260;-76
2023/03/01 16:47:58;;;;;;;21.67;12.90;;;9.10;67.90;;;;;;4897090;29;20033;-74
2023/03/01 16:50:24;;;;;;;21.20;13.00;;;8.90;68.40;;;;;;4879181;29;20099;-75
2023/03/01 16:52:51;;;;;;;22.00;13.25;;;8.70;69.70;;;;;;4898277;29;20323;-74
2023/03/01 16:55:16;;;;;;;22.35;13.70;;;8.60;69.60;;;;;;4891069;29;20060;-75
2023/03/01 16:57:43;;;;;;;21.55;13.05;;;8.50;70.20;;;;;;4890915;29;20382;-74
2023/03/01 17:00:12;;;;;;;22.10;12.88;;;8.40;70.30;;;;;;4859115;29;20033;-75
2023/03/01 17:02:39;;;;;;;20.55;12.63;;;8.30;70.80;;;;;;4890187;29;20323;-75
2023/03/01 17:05:05;;;;;;;23.38;12.90;;;8.10;71.20;;;;;;4903605;29;20101;-73
2023/03/01 17:07:35;;;;;;;20.45;12.38;;;8.00;71.50;;;;;;4890046;29;20215;-73
2023/03/01 17:10:03;;;;;;;21.95;12.75;;;8.00;72.00;;;;;;4902690;29;20075;-73
2023/03/01 17:12:29;;;;;;;21.88;13.35;;;7.80;72.30;;;;;;4889450;29;20183;-73
2023/03/01 17:14:55;;;;;;;23.33;12.93;;;7.70;73.00;;;;;;4889201;29;20208;-74
2023/03/01 17:17:21;;;;;;;23.63;13.73;;;7.60;73.10;;;;;;4889625;29;20040;-74
2023/03/01 17:19:47;;;;;;;23.80;13.40;;;7.50;73.60;;;;;;4889157;29;20037;-74
2023/03/01 17:22:13;;;;;;;25.35;14.60;;;7.40;73.90;;;;;;4889650;29;20044;-76
2023/03/01 17:24:40;;;;;;;23.65;13.25;;;7.20;74.70;;;;;;4889633;29;20021;-76
2023/03/01 17:27:06;;;;;;;28.13;14.75;;;7.10;75.10;;;;;;4888787;29;20197;-75
2023/03/01 17:29:33;;;;;;;25.17;14.77;;;7.00;75.60;;;;;;4899260;29;20044;-72
2023/03/01 17:31:59;;;;;;;28.17;14.90;;;6.90;76.60;;;;;;4889738;29;20037;-74
2023/03/01 17:34:25;;;;;;;24.17;14.38;;;6.80;76.60;;;;;;4888270;29;20039;-72
2023/03/01 17:36:52;;;;;;;23.83;14.13;;;6.70;77.00;;;;;;4888440;29;20089;-72
2023/03/01 17:39:24;;;;;;;23.15;13.88;;;6.60;77.60;;;;;;4888667;29;20036;-70
2023/03/01 17:41:51;;;;;;;27.73;13.93;;;6.60;77.60;;;;;;4888869;29;20327;-72
2023/03/01 17:44:17;;;;;;;24.10;14.18;;;6.50;77.70;;;;;;4889407;29;20032;-72
2023/03/01 17:46:43;;;;;;;24.52;12.98;;;6.40;78.80;;;;;;4890890;29;20029;-73
2023/03/01 17:49:09;;;;;;;23.60;13.55;;;6.30;78.80;;;;;;4907194;29;20036;-74
2023/03/01 17:51:36;;;;;;;23.33;13.45;;;6.20;78.90;;;;;;4890747;29;20100;-71
2023/03/01 17:54:02;;;;;;;24.75;14.18;;;6.10;79.80;;;;;;4907377;29;20045;-72
2023/03/01 17:56:28;;;;;;;25.73;14.77;;;6.10;79.90;;;;;;4907416;29;20032;-71
2023/03/01 17:58:54;;;;;;;23.45;15.15;;;6.00;80.40;;;;;;4907306;29;20047;-73
2023/03/01 18:04:00;;;;;;;25.10;14.05;;;6.00;80.40;;;;;;5078837;28;20703;-72
2023/03/01 18:06:27;;;;;;;26.23;14.88;;;5.90;81.00;;;;;;5079275;28;20107;-72
2023/03/01 18:08:55;;;;;;;27.30;15.48;;;5.80;81.20;;;;;;5080565;28;20028;-74
2023/03/01 18:11:23;;;;;;;27.37;14.80;;;5.80;81.20;;;;;;5078838;28;20255;-73
2023/03/01 18:13:50;;;;;;;;;;;5.70;81.80;;;;;;5078856;28;20055;-71
2023/03/01 18:16:18;;;;;;;27.17;14.20;;;5.60;81.90;;;;;;5037101;28;20218;-72
2023/03/01 18:18:44;;;;;;;26.25;13.75;;;5.60;82.50;;;;;;5039328;28;20033;-71
2023/03/01 18:21:11;;;;;;;26.60;14.68;;;5.50;82.70;;;;;;5038986;28;20026;-70
2023/03/01 18:23:38;;;;;;;28.83;14.93;;;5.40;82.50;;;;;;5039106;28;20087;-73
2023/03/01 18:26:10;;;;;;;26.15;14.68;;;5.30;82.90;;;;;;5038671;28;20044;-71
2023/03/01 18:28:36;;;;;;;28.90;15.43;;;5.20;83.20;;;;;;5037799;28;20025;-74
2023/03/01 18:31:09;;;;;;;25.33;14.43;;;5.20;83.50;;;;;;5038162;28;20331;-72